LiveATC.Net - Listen to live air traffic control over the Internet!


ICAO: KTWF  IATA: TWF   Airport: Joslin Field - Magic Valley Regional Airport
City: Twin Falls   State/Province: Idaho
Country: United States   Continent: North America
KTWF METAR Weather: KTWF 161353Z 22013KT 10SM CLR M09/M12 A3033 RMK AO2 SLP301 T10891117
KTWF Flight Activity (FlightAware)
KTWF Airport Info   (iFlightPlanner)
KTWF VFR Sectional Chart   (iFlightPlanner) 
KTWF IFR Low Chart   (iFlightPlanner) 

KTWF Gnd/Twr/App
Feed Status: UP   Listeners: 1
Listen in your browser - HTML5 player (in browser, HTML5)
Click here to listen with your own player (launches your MP3 player)
Archive Access: KTWF Gnd/Twr/App
FacilityFrequency
Twin Falls Approach/Departure126.700
Twin Falls Ground121.700
Twin Falls Tower118.200

NOTICE

Unauthorized use prohibited. See LiveATC.net Terms of Service


Airport/ARTCC Code
Frequency Search
(e.g., 124.400, 128.75)
Site-wide search
 


Browse Feeds
Top 50 Feeds
Coverage Map
Bad Weather Areas

LiveATC FAQ
Offer LiveATC feed
Contact LiveATC.net
Press Inquiries

LiveATC on iPhone
LiveATC on Android

Windows Phone
Windows 8/10

LiveATC Mobile
(Mobile browser)

ATC Audio Archives
Interesting Recordings

LiveATC Forums


Home Page
About LiveATC.net
Make a Donation
Terms of Use
Privacy Policy

Canadian Air Freqs

AIRMETs/SIGMETs

FAA Airport Status
Nat'l Airspace Status
Arrival Demand Charts


Server Software By:
Icecast.org
Liquidsoap